sensor_id;sensor_type;location;lat;lon;timestamp;pressure;altitude;pressure_sealevel;temperature;humidity
9746;BME280;4912;50.836;12.958;2024-01-15T00:01:24;96011.88;;;1.12;89.57
9746;BME280;4912;50.836;12.958;2024-01-15T00:03:59;96001.75;;;1.21;88.92
9746;BME280;4912;50.836;12.958;2024-01-15T00:06:38;95993.09;;;1.14;89.02
9746;BME280;4912;50.836;12.958;2024-01-15T00:09:12;95991.56;;;1.13;89.31
9746;BME280;4912;50.836;12.958;2024-01-15T00:11:48;95998.97;;;1.12;89.64
9746;BME280;4912;50.836;12.958;2024-01-15T00:14:23;95984.44;;;1.06;92.62
9746;BME280;4912;50.836;12.958;2024-01-15T00:16:56;95991.88;;;1.06;94.46
9746;BME280;4912;50.836;12.958;2024-01-15T00:19:30;95992.75;;;1.03;94.42
9746;BME280;4912;50.836;12.958;2024-01-15T00:22:05;96001.03;;;0.90;93.17
9746;BME280;4912;50.836;12.958;2024-01-15T00:24:36;95992.56;;;0.88;92.73
9746;BME280;4912;50.836;12.958;2024-01-15T00:27:08;95977.44;;;0.87;92.50
9746;BME280;4912;50.836;12.958;2024-01-15T00:29:44;95986.06;;;0.95;91.73
9746;BME280;4912;50.836;12.958;2024-01-15T00:32:15;95969.59;;;0.98;90.88
9746;BME280;4912;50.836;12.958;2024-01-15T00:34:48;95978.22;;;0.97;90.88
9746;BME280;4912;50.836;12.958;2024-01-15T00:37:19;95982.63;;;1.03;90.67
9746;BME280;4912;50.836;12.958;2024-01-15T00:39:50;95968.56;;;1.05;89.89
9746;BME280;4912;50.836;12.958;2024-01-15T00:42:39;95955.25;;;1.07;90.05
9746;BME280;4912;50.836;12.958;2024-01-15T00:45:36;95959.03;;;1.09;89.47
9746;BME280;4912;50.836;12.958;2024-01-15T00:48:09;95968.09;;;1.06;89.28
9746;BME280;4912;50.836;12.958;2024-01-15T00:50:42;95961.88;;;0.97;90.00
9746;BME280;4912;50.836;12.958;2024-01-15T00:53:18;95964.44;;;0.91;90.14
9746;BME280;4912;50.836;12.958;2024-01-15T00:55:49;95964.44;;;0.91;90.51
9746;BME280;4912;50.836;12.958;2024-01-15T00:58:20;95971.41;;;0.92;90.01
9746;BME280;4912;50.836;12.958;2024-01-15T01:00:50;95973.03;;;0.90;90.52
9746;BME280;4912;50.836;12.958;2024-01-15T01:03:23;95959.75;;;0.92;91.73
9746;BME280;4912;50.836;12.958;2024-01-15T01:05:57;95970.16;;;0.84;93.67
9746;BME280;4912;50.836;12.958;2024-01-15T01:08:41;95968.94;;;0.76;94.29
9746;BME280;4912;50.836;12.958;2024-01-15T01:11:25;95954.84;;;0.77;95.21
9746;BME280;4912;50.836;12.958;2024-01-15T01:14:10;95951.50;;;0.64;95.85
9746;BME280;4912;50.836;12.958;2024-01-15T01:16:48;95948.13;;;0.60;96.77
9746;BME280;4912;50.836;12.958;2024-01-15T01:19:19;95946.50;;;0.63;96.17
9746;BME280;4912;50.836;12.958;2024-01-15T01:21:52;95930.94;;;0.63;95.17
9746;BME280;4912;50.836;12.958;2024-01-15T01:24:23;95929.59;;;0.68;94.42
9746;BME280;4912;50.836;12.958;2024-01-15T01:26:58;95923.09;;;0.74;93.64
9746;BME280;4912;50.836;12.958;2024-01-15T01:29:29;95942.00;;;0.78;92.84
9746;BME280;4912;50.836;12.958;2024-01-15T01:32:00;95937.75;;;0.68;92.42
9746;BME280;4912;50.836;12.958;2024-01-15T01:34:32;95941.06;;;0.63;92.37
9746;BME280;4912;50.836;12.958;2024-01-15T01:37:11;95916.69;;;0.59;92.67
9746;BME280;4912;50.836;12.958;2024-01-15T01:39:43;95906.72;;;0.56;93.00
9746;BME280;4912;50.836;12.958;2024-01-15T01:42:19;95909.13;;;0.54;92.84
9746;BME280;4912;50.836;12.958;2024-01-15T01:44:50;95904.00;;;0.65;92.61
9746;BME280;4912;50.836;12.958;2024-01-15T01:47:20;95912.66;;;0.64;91.61
9746;BME280;4912;50.836;12.958;2024-01-15T01:49:54;95910.38;;;0.62;91.13
9746;BME280;4912;50.836;12.958;2024-01-15T01:52:27;95934.34;;;0.86;90.55
9746;BME280;4912;50.836;12.958;2024-01-15T01:54:58;95953.41;;;0.95;89.22
9746;BME280;4912;50.836;12.958;2024-01-15T01:57:31;95952.63;;;0.85;88.08
9746;BME280;4912;50.836;12.958;2024-01-15T02:00:04;95934.75;;;0.75;88.20
9746;BME280;4912;50.836;12.958;2024-01-15T02:02:39;95943.50;;;0.70;88.33
9746;BME280;4912;50.836;12.958;2024-01-15T02:05:10;95941.81;;;0.63;88.69
9746;BME280;4912;50.836;12.958;2024-01-15T02:07:46;95947.44;;;0.69;88.90
9746;BME280;4912;50.836;12.958;2024-01-15T02:10:16;95950.75;;;0.64;88.31
9746;BME280;4912;50.836;12.958;2024-01-15T02:13:10;95949.16;;;0.54;88.45
9746;BME280;4912;50.836;12.958;2024-01-15T02:15:55;95940.41;;;0.50;88.76
9746;BME280;4912;50.836;12.958;2024-01-15T02:18:26;95971.47;;;0.39;88.56
9746;BME280;4912;50.836;12.958;2024-01-15T02:21:20;95947.28;;;0.41;89.12
9746;BME280;4912;50.836;12.958;2024-01-15T02:23:56;95942.84;;;0.57;88.50
9746;BME280;4912;50.836;12.958;2024-01-15T02:26:27;95936.97;;;0.58;87.85
9746;BME280;4912;50.836;12.958;2024-01-15T02:28:57;95939.59;;;0.40;87.93
9746;BME280;4912;50.836;12.958;2024-01-15T02:31:29;95938.53;;;0.37;88.32
9746;BME280;4912;50.836;12.958;2024-01-15T02:34:00;95938.25;;;0.45;88.22
9746;BME280;4912;50.836;12.958;2024-01-15T02:36:31;95940.38;;;0.40;88.09
9746;BME280;4912;50.836;12.958;2024-01-15T02:39:06;95940.31;;;0.31;88.42
9746;BME280;4912;50.836;12.958;2024-01-15T02:41:37;95934.00;;;0.34;88.48
9746;BME280;4912;50.836;12.958;2024-01-15T02:44:07;95933.81;;;0.29;88.38
9746;BME280;4912;50.836;12.958;2024-01-15T02:46:44;95932.88;;;0.23;88.87
9746;BME280;4912;50.836;12.958;2024-01-15T02:49:17;95931.34;;;0.22;88.82
9746;BME280;4912;50.836;12.958;2024-01-15T02:51:48;95938.00;;;0.21;89.17
9746;BME280;4912;50.836;12.958;2024-01-15T02:54:22;95916.06;;;0.15;89.41
9746;BME280;4912;50.836;12.958;2024-01-15T02:56:54;95920.28;;;0.16;89.61
9746;BME280;4912;50.836;12.958;2024-01-15T02:59:25;95925.28;;;0.18;89.41
9746;BME280;4912;50.836;12.958;2024-01-15T03:01:55;95930.22;;;0.10;89.42
9746;BME280;4912;50.836;12.958;2024-01-15T03:04:26;95932.88;;;0.01;89.81
9746;BME280;4912;50.836;12.958;2024-01-15T03:06:57;95933.28;;;-0.10;90.41
9746;BME280;4912;50.836;12.958;2024-01-15T03:09:30;95931.50;;;-0.04;91.24
9746;BME280;4912;50.836;12.958;2024-01-15T03:12:01;95947.28;;;-0.11;91.51
9746;BME280;4912;50.836;12.958;2024-01-15T03:14:32;95936.56;;;-0.15;91.85
9746;BME280;4912;50.836;12.958;2024-01-15T03:17:03;95939.41;;;-0.18;91.84
9746;BME280;4912;50.836;12.958;2024-01-15T03:19:36;95936.19;;;-0.26;92.82
9746;BME280;4912;50.836;12.958;2024-01-15T03:22:07;95938.16;;;-0.26;93.49
9746;BME280;4912;50.836;12.958;2024-01-15T03:24:40;95932.28;;;-0.25;93.44
9746;BME280;4912;50.836;12.958;2024-01-15T03:27:10;95938.00;;;-0.23;93.63
9746;BME280;4912;50.836;12.958;2024-01-15T03:29:41;95933.56;;;-0.29;93.56
9746;BME280;4912;50.836;12.958;2024-01-15T03:32:12;95939.91;;;-0.32;94.08
9746;BME280;4912;50.836;12.958;2024-01-15T03:34:43;95944.97;;;-0.22;93.41
9746;BME280;4912;50.836;12.958;2024-01-15T03:37:15;95932.75;;;-0.17;92.93
9746;BME280;4912;50.836;12.958;2024-01-15T03:39:48;95943.53;;;-0.14;92.38
9746;BME280;4912;50.836;12.958;2024-01-15T03:42:18;95943.38;;;-0.10;92.15
9746;BME280;4912;50.836;12.958;2024-01-15T03:44:49;95938.28;;;-0.08;91.53
9746;BME280;4912;50.836;12.958;2024-01-15T03:47:20;95945.63;;;-0.18;90.98
9746;BME280;4912;50.836;12.958;2024-01-15T03:49:50;95938.75;;;-0.22;90.88
9746;BME280;4912;50.836;12.958;2024-01-15T03:52:21;95935.19;;;-0.19;90.84
9746;BME280;4912;50.836;12.958;2024-01-15T03:54:56;95941.44;;;-0.10;90.66
9746;BME280;4912;50.836;12.958;2024-01-15T03:57:27;95940.66;;;-0.10;90.16
9746;BME280;4912;50.836;12.958;2024-01-15T03:59:57;95927.06;;;-0.10;90.21
9746;BME280;4912;50.836;12.958;2024-01-15T04:02:31;95921.78;;;-0.14;89.86
9746;BME280;4912;50.836;12.958;2024-01-15T04:05:02;95925.56;;;-0.11;89.46
9746;BME280;4912;50.836;12.958;2024-01-15T04:07:35;95941.66;;;-0.17;89.21
9746;BME280;4912;50.836;12.958;2024-01-15T04:10:11;95944.19;;;-0.22;89.39
9746;BME280;4912;50.836;12.958;2024-01-15T04:12:41;95934.16;;;-0.13;89.37
9746;BME280;4912;50.836;12.958;2024-01-15T04:15:15;95930.63;;;-0.22;89.27
9746;BME280;4912;50.836;12.958;2024-01-15T04:17:46;95936.75;;;-0.31;89.38
9746;BME280;4912;50.836;12.958;2024-01-15T04:20:17;95929.63;;;-0.37;89.86
9746;BME280;4912;50.836;12.958;2024-01-15T04:22:51;95938.34;;;-0.43;90.42
9746;BME280;4912;50.836;12.958;2024-01-15T04:25:27;95930.19;;;-0.43;90.33
9746;BME280;4912;50.836;12.958;2024-01-15T04:28:00;95932.25;;;-0.47;90.47
9746;BME280;4912;50.836;12.958;2024-01-15T04:30:31;95928.56;;;-0.53;90.81
9746;BME280;4912;50.836;12.958;2024-01-15T04:33:02;95937.47;;;-0.52;91.01
9746;BME280;4912;50.836;12.958;2024-01-15T04:35:34;95916.09;;;-0.50;91.01
9746;BME280;4912;50.836;12.958;2024-01-15T04:38:05;95925.03;;;-0.41;90.80
9746;BME280;4912;50.836;12.958;2024-01-15T04:40:39;95936.47;;;-0.46;90.58
9746;BME280;4912;50.836;12.958;2024-01-15T04:43:10;95925.00;;;-0.50;90.77
9746;BME280;4912;50.836;12.958;2024-01-15T04:45:41;95930.00;;;-0.48;91.08
9746;BME280;4912;50.836;12.958;2024-01-15T04:48:12;95927.47;;;-0.43;91.09
9746;BME280;4912;50.836;12.958;2024-01-15T04:50:42;95926.28;;;-0.42;90.74
9746;BME280;4912;50.836;12.958;2024-01-15T04:53:17;95936.00;;;-0.31;90.83
9746;BME280;4912;50.836;12.958;2024-01-15T04:55:50;95945.00;;;-0.34;90.63
9746;BME280;4912;50.836;12.958;2024-01-15T04:58:21;95935.66;;;-0.33;90.95
9746;BME280;4912;50.836;12.958;2024-01-15T05:00:54;95935.09;;;-0.28;90.99
9746;BME280;4912;50.836;12.958;2024-01-15T05:03:25;95940.25;;;-0.30;90.66
9746;BME280;4912;50.836;12.958;2024-01-15T05:05:56;95944.66;;;-0.24;90.65
9746;BME280;4912;50.836;12.958;2024-01-15T05:08:26;95947.16;;;-0.29;90.51
9746;BME280;4912;50.836;12.958;2024-01-15T05:11:00;95940.47;;;-0.37;90.87
9746;BME280;4912;50.836;12.958;2024-01-15T05:13:30;95950.78;;;-0.32;91.07
9746;BME280;4912;50.836;12.958;2024-01-15T05:16:01;95963.47;;;-0.29;90.51
9746;BME280;4912;50.836;12.958;2024-01-15T05:18:32;95956.78;;;-0.37;90.30
9746;BME280;4912;50.836;12.958;2024-01-15T05:21:04;95953.16;;;-0.34;90.28
9746;BME280;4912;50.836;12.958;2024-01-15T05:23:35;95942.81;;;-0.27;89.84
9746;BME280;4912;50.836;12.958;2024-01-15T05:26:08;95934.66;;;-0.27;89.65
9746;BME280;4912;50.836;12.958;2024-01-15T05:28:40;95963.47;;;-0.29;89.19
9746;BME280;4912;50.836;12.958;2024-01-15T05:31:12;95942.63;;;-0.32;89.62
9746;BME280;4912;50.836;12.958;2024-01-15T05:33:42;95948.78;;;-0.19;89.23
9746;BME280;4912;50.836;12.958;2024-01-15T05:36:13;95946.81;;;-0.19;88.52
9746;BME280;4912;50.836;12.958;2024-01-15T05:38:44;95959.81;;;-0.35;88.65
9746;BME280;4912;50.836;12.958;2024-01-15T05:41:17;95944.19;;;-0.44;89.27
9746;BME280;4912;50.836;12.958;2024-01-15T05:43:48;95961.69;;;-0.45;89.51
9746;BME280;4912;50.836;12.958;2024-01-15T05:46:19;95943.00;;;-0.43;89.65
9746;BME280;4912;50.836;12.958;2024-01-15T05:48:49;95944.97;;;-0.44;89.59
9746;BME280;4912;50.836;12.958;2024-01-15T05:51:20;95948.25;;;-0.27;89.16
9746;BME280;4912;50.836;12.958;2024-01-15T05:53:51;95947.38;;;-0.24;88.60
9746;BME280;4912;50.836;12.958;2024-01-15T05:56:24;95932.91;;;-0.21;88.44
9746;BME280;4912;50.836;12.958;2024-01-15T05:58:54;95925.44;;;-0.29;88.05
9746;BME280;4912;50.836;12.958;2024-01-15T06:01:25;95931.94;;;-0.27;88.34
9746;BME280;4912;50.836;12.958;2024-01-15T06:03:56;95919.44;;;-0.24;88.06
9746;BME280;4912;50.836;12.958;2024-01-15T06:06:27;95927.13;;;-0.23;87.57
9746;BME280;4912;50.836;12.958;2024-01-15T06:08:57;95924.16;;;-0.16;87.64
9746;BME280;4912;50.836;12.958;2024-01-15T06:11:35;95942.00;;;-0.15;87.11
9746;BME280;4912;50.836;12.958;2024-01-15T06:14:06;95936.69;;;-0.18;87.15
9746;BME280;4912;50.836;12.958;2024-01-15T06:16:36;95938.47;;;-0.24;87.03
9746;BME280;4912;50.836;12.958;2024-01-15T06:19:07;95928.91;;;-0.29;87.26
9746;BME280;4912;50.836;12.958;2024-01-15T06:21:38;95926.94;;;-0.28;87.13
9746;BME280;4912;50.836;12.958;2024-01-15T06:24:08;95924.22;;;-0.28;87.34
9746;BME280;4912;50.836;12.958;2024-01-15T06:26:43;95922.28;;;-0.28;87.31
9746;BME280;4912;50.836;12.958;2024-01-15T06:29:14;95912.50;;;-0.25;87.18
9746;BME280;4912;50.836;12.958;2024-01-15T06:31:44;95910.97;;;-0.26;87.42
9746;BME280;4912;50.836;12.958;2024-01-15T06:34:15;95916.41;;;-0.26;87.19
9746;BME280;4912;50.836;12.958;2024-01-15T06:36:46;95917.03;;;-0.22;87.02
9746;BME280;4912;50.836;12.958;2024-01-15T06:39:17;95915.84;;;-0.21;86.92
9746;BME280;4912;50.836;12.958;2024-01-15T06:41:50;95911.91;;;-0.20;86.83
9746;BME280;4912;50.836;12.958;2024-01-15T06:44:20;95922.47;;;-0.22;86.68
9746;BME280;4912;50.836;12.958;2024-01-15T06:46:51;95907.69;;;-0.21;86.67
9746;BME280;4912;50.836;12.958;2024-01-15T06:49:24;95911.03;;;-0.17;86.69
9746;BME280;4912;50.836;12.958;2024-01-15T06:51:55;95911.28;;;-0.24;86.58
9746;BME280;4912;50.836;12.958;2024-01-15T06:54:26;95910.78;;;-0.32;86.90
9746;BME280;4912;50.836;12.958;2024-01-15T06:56:59;95911.53;;;-0.31;87.07
9746;BME280;4912;50.836;12.958;2024-01-15T06:59:29;95914.78;;;-0.24;87.15
9746;BME280;4912;50.836;12.958;2024-01-15T07:02:00;95920.06;;;-0.20;86.84
9746;BME280;4912;50.836;12.958;2024-01-15T07:04:30;95925.94;;;-0.22;86.83
9746;BME280;4912;50.836;12.958;2024-01-15T07:07:01;95923.03;;;-0.27;86.86
9746;BME280;4912;50.836;12.958;2024-01-15T07:09:32;95921.66;;;-0.32;86.98
9746;BME280;4912;50.836;12.958;2024-01-15T07:12:05;95934.81;;;-0.30;86.83
9746;BME280;4912;50.836;12.958;2024-01-15T07:14:36;95934.41;;;-0.42;87.09
9746;BME280;4912;50.836;12.958;2024-01-15T07:17:06;95919.63;;;-0.41;87.57
9746;BME280;4912;50.836;12.958;2024-01-15T07:19:40;95928.81;;;-0.25;87.29
9746;BME280;4912;50.836;12.958;2024-01-15T07:22:10;95940.03;;;-0.14;86.46
9746;BME280;4912;50.836;12.958;2024-01-15T07:24:42;95928.16;;;-0.08;86.00
9746;BME280;4912;50.836;12.958;2024-01-15T07:27:15;95951.34;;;-0.16;85.76
9746;BME280;4912;50.836;12.958;2024-01-15T07:29:46;95930.81;;;-0.17;85.77
9746;BME280;4912;50.836;12.958;2024-01-15T07:32:17;95938.84;;;-0.13;85.56
9746;BME280;4912;50.836;12.958;2024-01-15T07:34:47;95950.28;;;-0.18;85.48
9746;BME280;4912;50.836;12.958;2024-01-15T07:37:18;95943.94;;;-0.15;85.41
9746;BME280;4912;50.836;12.958;2024-01-15T07:39:50;95949.56;;;-0.10;84.96
9746;BME280;4912;50.836;12.958;2024-01-15T07:42:24;95951.47;;;-0.19;84.97
9746;BME280;4912;50.836;12.958;2024-01-15T07:44:54;95957.78;;;-0.22;85.64
9746;BME280;4912;50.836;12.958;2024-01-15T07:47:25;95953.25;;;-0.25;85.38
9746;BME280;4912;50.836;12.958;2024-01-15T07:49:55;95969.94;;;-0.14;85.67
9746;BME280;4912;50.836;12.958;2024-01-15T07:52:31;95965.38;;;-0.17;84.87
9746;BME280;4912;50.836;12.958;2024-01-15T07:55:02;95954.63;;;-0.21;84.82
9746;BME280;4912;50.836;12.958;2024-01-15T07:57:36;95962.28;;;-0.28;84.67
9746;BME280;4912;50.836;12.958;2024-01-15T08:00:07;95956.59;;;-0.21;84.73
9746;BME280;4912;50.836;12.958;2024-01-15T08:02:39;95953.00;;;-0.18;84.36
9746;BME280;4912;50.836;12.958;2024-01-15T08:05:09;95963.59;;;-0.11;84.35
9746;BME280;4912;50.836;12.958;2024-01-15T08:07:40;95951.06;;;-0.18;84.05
9746;BME280;4912;50.836;12.958;2024-01-15T08:10:10;95956.91;;;-0.19;84.09
9746;BME280;4912;50.836;12.958;2024-01-15T08:12:44;95954.38;;;-0.14;83.92
9746;BME280;4912;50.836;12.958;2024-01-15T08:15:15;95954.81;;;-0.15;83.84
9746;BME280;4912;50.836;12.958;2024-01-15T08:17:45;95953.38;;;-0.07;83.43
9746;BME280;4912;50.836;12.958;2024-01-15T08:20:16;95972.84;;;-0.09;82.86
9746;BME280;4912;50.836;12.958;2024-01-15T08:22:47;95977.84;;;-0.07;83.03
9746;BME280;4912;50.836;12.958;2024-01-15T08:25:17;95970.56;;;-0.10;82.64
9746;BME280;4912;50.836;12.958;2024-01-15T08:27:51;95953.50;;;-0.11;82.71
9746;BME280;4912;50.836;12.958;2024-01-15T08:30:21;95961.84;;;-0.05;82.71
9746;BME280;4912;50.836;12.958;2024-01-15T08:32:55;95959.19;;;0.04;82.58
9746;BME280;4912;50.836;12.958;2024-01-15T08:35:37;95953.50;;;0.11;81.96
9746;BME280;4912;50.836;12.958;2024-01-15T08:38:07;95966.25;;;0.23;81.23
9746;BME280;4912;50.836;12.958;2024-01-15T08:40:38;95958.97;;;0.20;80.81
9746;BME280;4912;50.836;12.958;2024-01-15T08:43:11;95958.66;;;0.18;80.64
9746;BME280;4912;50.836;12.958;2024-01-15T08:45:42;95962.91;;;0.19;80.46
9746;BME280;4912;50.836;12.958;2024-01-15T08:48:13;95966.53;;;0.16;80.54
9746;BME280;4912;50.836;12.958;2024-01-15T08:50:45;95945.38;;;0.20;80.55
9746;BME280;4912;50.836;12.958;2024-01-15T08:53:17;95964.16;;;0.27;80.29
9746;BME280;4912;50.836;12.958;2024-01-15T08:55:48;95976.50;;;0.19;80.17
9746;BME280;4912;50.836;12.958;2024-01-15T08:58:23;95955.94;;;0.18;80.25
9746;BME280;4912;50.836;12.958;2024-01-15T09:00:54;95965.19;;;0.21;80.11
9746;BME280;4912;50.836;12.958;2024-01-15T09:03:25;95960.75;;;0.14;80.20
9746;BME280;4912;50.836;12.958;2024-01-15T09:05:55;95952.66;;;0.23;80.10
9746;BME280;4912;50.836;12.958;2024-01-15T09:08:26;95963.16;;;0.34;79.83
9746;BME280;4912;50.836;12.958;2024-01-15T09:10:57;95956.09;;;0.46;79.37
9746;BME280;4912;50.836;12.958;2024-01-15T09:13:32;95960.81;;;0.54;78.42
9746;BME280;4912;50.836;12.958;2024-01-15T09:16:03;95969.28;;;0.56;77.93
9746;BME280;4912;50.836;12.958;2024-01-15T09:18:34;95952.88;;;0.69;77.92
9746;BME280;4912;50.836;12.958;2024-01-15T09:21:05;95964.38;;;0.73;77.96
9746;BME280;4912;50.836;12.958;2024-01-15T09:23:35;95966.50;;;0.78;77.38
9746;BME280;4912;50.836;12.958;2024-01-15T09:26:08;95969.88;;;0.91;77.08
9746;BME280;4912;50.836;12.958;2024-01-15T09:28:41;95958.56;;;0.93;76.79
9746;BME280;4912;50.836;12.958;2024-01-15T09:31:12;95973.09;;;0.99;76.36
9746;BME280;4912;50.836;12.958;2024-01-15T09:33:44;95961.41;;;0.89;76.33
9746;BME280;4912;50.836;12.958;2024-01-15T09:36:15;95958.66;;;0.80;76.28
9746;BME280;4912;50.836;12.958;2024-01-15T09:38:46;95961.34;;;0.71;76.80
9746;BME280;4912;50.836;12.958;2024-01-15T09:41:16;95953.47;;;0.73;77.19
9746;BME280;4912;50.836;12.958;2024-01-15T09:43:50;95965.75;;;0.77;77.22
9746;BME280;4912;50.836;12.958;2024-01-15T09:46:21;95959.31;;;0.93;77.13
9746;BME280;4912;50.836;12.958;2024-01-15T09:48:52;95962.66;;;0.97;76.18
9746;BME280;4912;50.836;12.958;2024-01-15T09:51:24;95964.44;;;0.91;76.57
9746;BME280;4912;50.836;12.958;2024-01-15T09:53:55;95954.47;;;1.06;76.52
9746;BME280;4912;50.836;12.958;2024-01-15T09:56:25;95964.34;;;1.13;76.27
9746;BME280;4912;50.836;12.958;2024-01-15T09:59:00;95974.34;;;1.25;76.04
9746;BME280;4912;50.836;12.958;2024-01-15T10:01:31;95961.44;;;0.98;75.52
9746;BME280;4912;50.836;12.958;2024-01-15T10:04:02;95957.47;;;0.90;76.56
9746;BME280;4912;50.836;12.958;2024-01-15T10:06:34;95975.31;;;0.82;76.64
9746;BME280;4912;50.836;12.958;2024-01-15T10:09:05;95964.03;;;0.62;77.13
9746;BME280;4912;50.836;12.958;2024-01-15T10:11:36;95949.25;;;0.72;77.96
9746;BME280;4912;50.836;12.958;2024-01-15T10:14:10;95954.72;;;0.81;77.35
9746;BME280;4912;50.836;12.958;2024-01-15T10:16:42;95945.97;;;0.86;77.18
9746;BME280;4912;50.836;12.958;2024-01-15T10:19:13;95958.38;;;0.87;76.87
9746;BME280;4912;50.836;12.958;2024-01-15T10:21:43;95948.44;;;0.93;77.01
9746;BME280;4912;50.836;12.958;2024-01-15T10:24:14;95938.13;;;0.97;76.87
9746;BME280;4912;50.836;12.958;2024-01-15T10:26:45;95933.28;;;0.92;77.13
9746;BME280;4912;50.836;12.958;2024-01-15T10:29:18;95919.72;;;1.10;76.67
9746;BME280;4912;50.836;12.958;2024-01-15T10:31:49;95944.66;;;1.09;76.02
9746;BME280;4912;50.836;12.958;2024-01-15T10:34:20;95914.56;;;1.12;76.06
9746;BME280;4912;50.836;12.958;2024-01-15T10:36:50;95914.28;;;1.38;75.34
9746;BME280;4912;50.836;12.958;2024-01-15T10:39:23;95907.94;;;1.50;74.70
9746;BME280;4912;50.836;12.958;2024-01-15T10:41:54;95916.72;;;1.54;74.13
9746;BME280;4912;50.836;12.958;2024-01-15T10:44:27;95921.72;;;1.55;73.74
9746;BME280;4912;50.836;12.958;2024-01-15T10:46:58;95920.81;;;1.49;73.56
9746;BME280;4912;50.836;12.958;2024-01-15T10:49:28;95917.47;;;1.54;73.40
9746;BME280;4912;50.836;12.958;2024-01-15T10:52:01;95910.06;;;1.55;72.89
9746;BME280;4912;50.836;12.958;2024-01-15T10:54:32;95908.41;;;1.57;73.50
9746;BME280;4912;50.836;12.958;2024-01-15T10:57:04;95913.84;;;1.57;73.09
9746;BME280;4912;50.836;12.958;2024-01-15T10:59:39;95907.03;;;1.62;72.55
9746;BME280;4912;50.836;12.958;2024-01-15T11:02:09;95902.03;;;1.60;72.45
9746;BME280;4912;50.836;12.958;2024-01-15T11:04:42;95908.25;;;1.52;72.94
9746;BME280;4912;50.836;12.958;2024-01-15T11:07:14;95902.94;;;1.48;73.40
9746;BME280;4912;50.836;12.958;2024-01-15T11:09:45;95905.38;;;1.55;73.13
9746;BME280;4912;50.836;12.958;2024-01-15T11:12:17;95900.34;;;1.72;72.79
9746;BME280;4912;50.836;12.958;2024-01-15T11:14:50;95900.66;;;1.92;72.04
9746;BME280;4912;50.836;12.958;2024-01-15T11:17:24;95897.44;;;2.03;71.28
9746;BME280;4912;50.836;12.958;2024-01-15T11:19:58;95893.06;;;1.96;71.43
9746;BME280;4912;50.836;12.958;2024-01-15T11:22:47;95897.00;;;1.95;71.54
9746;BME280;4912;50.836;12.958;2024-01-15T11:25:19;95900.97;;;1.85;71.63
9746;BME280;4912;50.836;12.958;2024-01-15T11:27:51;95901.13;;;1.73;71.93
9746;BME280;4912;50.836;12.958;2024-01-15T11:30:27;95900.84;;;1.71;72.35
9746;BME280;4912;50.836;12.958;2024-01-15T11:32:57;95892.66;;;1.71;72.47
9746;BME280;4912;50.836;12.958;2024-01-15T11:35:52;95894.25;;;1.95;71.87
9746;BME280;4912;50.836;12.958;2024-01-15T11:38:29;95885.75;;;2.12;71.00
9746;BME280;4912;50.836;12.958;2024-01-15T11:40:59;95876.06;;;2.01;70.61
9746;BME280;4912;50.836;12.958;2024-01-15T11:43:31;95889.72;;;2.01;71.33
9746;BME280;4912;50.836;12.958;2024-01-15T11:46:10;95886.88;;;1.87;71.31
9746;BME280;4912;50.836;12.958;2024-01-15T11:48:44;95886.72;;;1.81;72.14
9746;BME280;4912;50.836;12.958;2024-01-15T11:51:17;95878.56;;;1.81;71.92
9746;BME280;4912;50.836;12.958;2024-01-15T11:53:52;95861.00;;;1.82;71.82
9746;BME280;4912;50.836;12.958;2024-01-15T11:56:28;95882.19;;;1.87;71.96
9746;BME280;4912;50.836;12.958;2024-01-15T11:59:00;95878.38;;;1.94;71.45
9746;BME280;4912;50.836;12.958;2024-01-15T12:01:34;95882.31;;;1.93;71.36
9746;BME280;4912;50.836;12.958;2024-01-15T12:04:05;95885.50;;;1.91;71.62
9746;BME280;4912;50.836;12.958;2024-01-15T12:06:36;95879.28;;;1.91;71.58
9746;BME280;4912;50.836;12.958;2024-01-15T12:09:07;95881.88;;;1.85;71.34
9746;BME280;4912;50.836;12.958;2024-01-15T12:11:39;95880.22;;;1.88;71.98
9746;BME280;4912;50.836;12.958;2024-01-15T12:14:14;95876.25;;;1.89;71.86
9746;BME280;4912;50.836;12.958;2024-01-15T12:16:47;95890.06;;;1.85;72.18
9746;BME280;4912;50.836;12.958;2024-01-15T12:19:18;95880.03;;;1.91;71.94
9746;BME280;4912;50.836;12.958;2024-01-15T12:21:50;95881.13;;;1.94;71.68
9746;BME280;4912;50.836;12.958;2024-01-15T12:24:21;95891.25;;;1.84;71.95
9746;BME280;4912;50.836;12.958;2024-01-15T12:26:52;95895.97;;;1.65;72.87
9746;BME280;4912;50.836;12.958;2024-01-15T12:29:23;95889.16;;;1.61;73.39
9746;BME280;4912;50.836;12.958;2024-01-15T12:31:57;95877.22;;;1.49;73.51
9746;BME280;4912;50.836;12.958;2024-01-15T12:34:29;95885.38;;;1.49;73.73
9746;BME280;4912;50.836;12.958;2024-01-15T12:37:00;95889.78;;;1.56;73.88
9746;BME280;4912;50.836;12.958;2024-01-15T12:39:31;95889.47;;;1.63;73.90
9746;BME280;4912;50.836;12.958;2024-01-15T12:42:04;95879.94;;;1.58;74.12
9746;BME280;4912;50.836;12.958;2024-01-15T12:44:36;95882.06;;;1.54;74.19
9746;BME280;4912;50.836;12.958;2024-01-15T12:47:09;95877.22;;;1.49;74.68
9746;BME280;4912;50.836;12.958;2024-01-15T12:49:41;95881.44;;;1.59;74.39
9746;BME280;4912;50.836;12.958;2024-01-15T12:52:12;95879.19;;;1.58;74.18
9746;BME280;4912;50.836;12.958;2024-01-15T12:54:42;95873.75;;;1.58;74.43
9746;BME280;4912;50.836;12.958;2024-01-15T12:57:13;95874.94;;;1.66;74.00
9746;BME280;4912;50.836;12.958;2024-01-15T12:59:44;95878.72;;;1.69;73.90
9746;BME280;4912;50.836;12.958;2024-01-15T13:02:21;95868.88;;;1.62;74.26
9746;BME280;4912;50.836;12.958;2024-01-15T13:04:52;95871.28;;;1.60;74.61
9746;BME280;4912;50.836;12.958;2024-01-15T13:07:24;95870.09;;;1.61;74.67
9746;BME280;4912;50.836;12.958;2024-01-15T13:09:57;95858.75;;;1.62;74.92
9746;BME280;4912;50.836;12.958;2024-01-15T13:12:31;95866.47;;;1.55;74.41
9746;BME280;4912;50.836;12.958;2024-01-15T13:15:09;95867.25;;;1.46;74.88
9746;BME280;4912;50.836;12.958;2024-01-15T13:17:44;95869.97;;;1.46;75.25
9746;BME280;4912;50.836;12.958;2024-01-15T13:20:17;95861.03;;;1.46;75.04
9746;BME280;4912;50.836;12.958;2024-01-15T13:22:49;95867.22;;;1.37;75.57
9746;BME280;4912;50.836;12.958;2024-01-15T13:25:20;95866.63;;;1.33;76.03
9746;BME280;4912;50.836;12.958;2024-01-15T13:27:51;95884.34;;;1.29;76.20
9746;BME280;4912;50.836;12.958;2024-01-15T13:30:22;95882.34;;;1.20;77.01
9746;BME280;4912;50.836;12.958;2024-01-15T13:32:56;95879.03;;;1.25;77.08
9746;BME280;4912;50.836;12.958;2024-01-15T13:35:31;95881.59;;;1.19;77.16
9746;BME280;4912;50.836;12.958;2024-01-15T13:38:03;95874.63;;;1.18;77.42
9746;BME280;4912;50.836;12.958;2024-01-15T13:40:36;95886.75;;;1.27;77.03
9746;BME280;4912;50.836;12.958;2024-01-15T13:43:06;95886.44;;;1.15;77.54
9746;BME280;4912;50.836;12.958;2024-01-15T13:45:37;95879.19;;;1.21;78.29